Armadores I — SY8463 — position and weather

sailwx.info

Track history (hours):
 
Tides and Currents Weather Stations Pressure Air Temp Water Temp Dewpoint Dewpoint Depression Visibility Wind Speed Wind Dir Waves Ship Positions

Armadores I

Last reported at 2015-Mar-28 10:33 UTC. Time now 2015-Mar-28 11:08 UTC.
Position N 37°28' E 025°20'.

Length 32 m; draft 5.3 m.

Type: Tug. MMSI: 240694000.

Date/timePositionNaut miles runAvg speedWind from/ knotsBaromVisibWave heightAir tempDewpointWater temp
2015-Mar-28 10:33N 37°28' E 025°20'0 0.0
2015-Mar-28 09:33N 37°28' E 025°20'0 0.0
2015-Mar-28 08:33N 37°28' E 025°20'0 0.0
2015-Mar-28 07:33N 37°28' E 025°20'0 0.0
2015-Mar-28 06:33N 37°28' E 025°20'0 0.0
2015-Mar-28 05:33N 37°28' E 025°20'0 0.0
2015-Mar-28 04:33N 37°28' E 025°20'7 7.1
2015-Mar-28 03:33N 37°27' E 025°11'8 8.0
2015-Mar-28 02:33N 37°20' E 025°16'9 9.1
2015-Mar-28 01:33N 37°16' E 025°27'11 9.4
2015-Mar-28 00:26N 37°12' E 025°39'44 8.9
2015-Mar-27 19:30N 36°40' E 026°17'9 0.4
2015-Mar-26 19:33N 36°33' E 026°12'8 8.1
2015-Mar-26 18:31N 36°28' E 026°20'10 8.8
2015-Mar-26 17:24N 36°24' E 026°31'58 4.1
2015-Mar-26 03:22N 37°10' E 025°48'1310.0
2015-Mar-26 02:04N 37°15' E 025°33'5 9.7
2015-Mar-26 01:33N 37°17' E 025°27'10 9.9
2015-Mar-26 00:33N 37°20' E 025°15'7 6.9
2015-Mar-25 23:33N 37°27' E 025°13'6 5.5
2015-Mar-25 22:33N 37°28' E 025°20'0 0.0
2015-Mar-25 21:33N 37°28' E 025°20'0 0.0
2015-Mar-25 20:33N 37°28' E 025°20'0 0.0
2015-Mar-25 19:33N 37°28' E 025°20'0 0.0
2015-Mar-25 18:33N 37°28' E 025°20'0 0.0
2015-Mar-25 17:33N 37°28' E 025°20'0 0.0
2015-Mar-25 16:33N 37°28' E 025°20'0 0.0
2015-Mar-25 15:33N 37°28' E 025°20'0 0.0
2015-Mar-25 14:33N 37°28' E 025°20'0 0.0
2015-Mar-25 13:33N 37°28' E 025°20'0 0.0
2015-Mar-25 12:33N 37°28' E 025°20'0 0.0
2015-Mar-25 11:33N 37°28' E 025°20'0 0.0
2015-Mar-25 10:33N 37°28' E 025°20'0 0.0
2015-Mar-25 09:33N 37°28' E 025°20'0 0.0
2015-Mar-25 08:33N 37°28' E 025°20'0 0.0
2015-Mar-25 07:33N 37°28' E 025°20'0 0.0
2015-Mar-25 06:33N 37°28' E 025°20'0 0.0
2015-Mar-25 05:33N 37°28' E 025°20'0 0.0
2015-Mar-25 04:33N 37°28' E 025°20'0 0.0
2015-Mar-25 03:33N 37°28' E 025°20'0 0.0
2015-Mar-25 02:33N 37°28' E 025°20'0 0.0
2015-Mar-25 01:33N 37°28' E 025°20'0 0.0
2015-Mar-25 00:33N 37°28' E 025°20'0 0.0
2015-Mar-24 23:33N 37°28' E 025°20'0 0.0
2015-Mar-24 22:33N 37°28' E 025°20'0 0.0
2015-Mar-24 21:33N 37°28' E 025°20'0 0.0
2015-Mar-24 20:33N 37°28' E 025°20'0 0.0
2015-Mar-24 19:33N 37°28' E 025°20'0 0.0
2015-Mar-24 18:33N 37°28' E 025°20'0 0.0
2015-Mar-24 17:33N 37°28' E 025°20'0 0.0
2015-Mar-24 16:34N 37°28' E 025°20'0 0.0
2015-Mar-24 15:33N 37°28' E 025°20'0 0.0
2015-Mar-24 14:33N 37°28' E 025°20'0 0.0
2015-Mar-24 13:34N 37°28' E 025°20'0 0.0
2015-Mar-24 12:33N 37°28' E 025°20'0 0.0
2015-Mar-24 11:33N 37°28' E 025°20'0 0.0
2015-Mar-24 10:34N 37°28' E 025°20'0 0.0
2015-Mar-24 09:34N 37°28' E 025°20'0 0.0
2015-Mar-24 08:33N 37°28' E 025°20'0 0.0
2015-Mar-24 07:33N 37°28' E 025°20'0 0.0
2015-Mar-24 06:33N 37°28' E 025°20'0 0.0
2015-Mar-24 05:33N 37°28' E 025°20'0 0.0
2015-Mar-24 04:33N 37°28' E 025°20'0 0.0
2015-Mar-24 03:33N 37°28' E 025°20'0 0.0
2015-Mar-24 02:33N 37°28' E 025°20'0 0.0
2015-Mar-24 01:33N 37°28' E 025°20'0 0.0
2015-Mar-24 00:33N 37°28' E 025°20'0 0.0
2015-Mar-23 23:33N 37°28' E 025°20'0 0.0
2015-Mar-23 22:33N 37°28' E 025°20'0 0.0
2015-Mar-23 21:33N 37°28' E 025°20'0 0.0
2015-Mar-23 20:26N 37°28' E 025°20'0 0.0
2015-Mar-23 19:33N 37°28' E 025°20'0 0.0
2015-Mar-23 18:33N 37°28' E 025°20'0 0.0
2015-Mar-23 17:33N 37°28' E 025°20'0 0.0
2015-Mar-23 16:33N 37°28' E 025°20'0 0.0
2015-Mar-23 15:33N 37°28' E 025°20'0 0.0
2015-Mar-23 14:32N 37°28' E 025°20'0 0.0
2015-Mar-23 13:33N 37°28' E 025°20'0 0.0
2015-Mar-23 12:33N 37°28' E 025°20'0 0.0
2015-Mar-23 11:34N 37°28' E 025°20'0 0.0
2015-Mar-23 10:33N 37°28' E 025°20'0 0.0
2015-Mar-23 09:33N 37°28' E 025°20'0 0.0
2015-Mar-23 08:33N 37°28' E 025°20'0 0.0
2015-Mar-23 07:33N 37°28' E 025°20'0 0.0
2015-Mar-23 06:33N 37°28' E 025°20'0 0.0
2015-Mar-23 05:33N 37°28' E 025°20'0 0.0
2015-Mar-23 04:33N 37°28' E 025°20'0 0.0
2015-Mar-23 03:33N 37°28' E 025°20'0 0.0
2015-Mar-23 02:33N 37°28' E 025°20'0 0.0
2015-Mar-23 01:33N 37°28' E 025°20'0 0.0
2015-Mar-23 00:33N 37°28' E 025°20'0 0.0
2015-Mar-22 23:33N 37°28' E 025°20'0 0.0
2015-Mar-22 22:29N 37°28' E 025°20'0 0.0
2015-Mar-22 21:32N 37°28' E 025°20'0 0.0
2015-Mar-22 20:33N 37°28' E 025°20'0 0.0
2015-Mar-22 19:33N 37°28' E 025°20'0 0.0
2015-Mar-22 18:33N 37°28' E 025°20'0 0.0
2015-Mar-22 17:33N 37°28' E 025°20'0 0.0
2015-Mar-22 16:33N 37°28' E 025°20'0 0.0
2015-Mar-22 15:33N 37°28' E 025°20'0 0.0
2015-Mar-22 14:33N 37°28' E 025°20'0 0.0
2015-Mar-22 13:33N 37°28' E 025°20'0 0.0
2015-Mar-22 12:33N 37°28' E 025°20'0 0.0
2015-Mar-22 11:33N 37°28' E 025°20'0 0.0
2015-Mar-22 10:33N 37°28' E 025°20'0 0.0
2015-Mar-22 09:33N 37°28' E 025°20'0 0.0
2015-Mar-22 08:33N 37°28' E 025°20'0 0.0
2015-Mar-22 07:33N 37°28' E 025°20'0 0.0
2015-Mar-22 06:33N 37°28' E 025°20'0 0.0
2015-Mar-22 05:33N 37°28' E 025°20'0 0.0
2015-Mar-22 04:33N 37°28' E 025°20'0 0.0
2015-Mar-22 03:33N 37°28' E 025°20'0 0.0
2015-Mar-22 02:33N 37°28' E 025°20'0 0.0
2015-Mar-22 01:33N 37°28' E 025°20'0 0.0
2015-Mar-22 00:33N 37°28' E 025°20'0 0.0
2015-Mar-21 23:33N 37°28' E 025°20'0 0.0
2015-Mar-21 22:33N 37°28' E 025°20'0 0.0
2015-Mar-21 21:33N 37°28' E 025°20'0 0.0
2015-Mar-21 20:33N 37°28' E 025°20'0 0.0
2015-Mar-21 19:33N 37°28' E 025°20'0 0.0
2015-Mar-21 18:34N 37°28' E 025°20'0 0.0
2015-Mar-21 17:33N 37°28' E 025°20'0 0.0
2015-Mar-21 16:33N 37°28' E 025°20'0 0.0
2015-Mar-21 15:33N 37°28' E 025°20'0 0.0
2015-Mar-21 14:33N 37°28' E 025°20'0 0.0
2015-Mar-21 13:33N 37°28' E 025°20'0 0.0
2015-Mar-21 12:33N 37°28' E 025°20'0 0.0
2015-Mar-21 11:34N 37°28' E 025°20'0 0.0
2015-Mar-21 10:34N 37°28' E 025°20'0 0.0
2015-Mar-21 09:33N 37°28' E 025°20'0 0.0
2015-Mar-21 08:33N 37°28' E 025°20'0 0.0
2015-Mar-21 07:33N 37°28' E 025°20'0 0.0
2015-Mar-21 06:33N 37°28' E 025°20'0 0.0
2015-Mar-21 05:33N 37°28' E 025°20'0 0.0
2015-Mar-21 04:33N 37°28' E 025°20'0 0.0
2015-Mar-21 03:33N 37°28' E 025°20'0 0.0
2015-Mar-21 02:33N 37°28' E 025°20'0 0.0
2015-Mar-21 01:33N 37°28' E 025°20'0 0.0
2015-Mar-21 00:33N 37°28' E 025°20'0 0.0
2015-Mar-20 23:33N 37°28' E 025°20'0 0.0
2015-Mar-20 22:33N 37°28' E 025°20'0 0.0
2015-Mar-20 21:33N 37°28' E 025°20'0 0.0
2015-Mar-20 20:33N 37°28' E 025°20'0 0.0
2015-Mar-20 19:33N 37°28' E 025°20'0 0.0
2015-Mar-20 18:33N 37°28' E 025°20'0 0.0
2015-Mar-20 17:33N 37°28' E 025°20'0 0.0
2015-Mar-20 16:34N 37°28' E 025°20'0 0.2
2015-Mar-20 15:33N 37°28' E 025°19'0 0.2
2015-Mar-20 14:33N 37°28' E 025°20'0 0.0
2015-Mar-20 13:33N 37°28' E 025°20'0 0.1
2015-Mar-20 12:33N 37°28' E 025°20'0 0.1
2015-Mar-20 11:33N 37°28' E 025°20'0 0.0
2015-Mar-20 10:33N 37°28' E 025°20'0 0.0
2015-Mar-20 09:33N 37°28' E 025°20'0 0.0
2015-Mar-20 08:33N 37°28' E 025°20'0 0.0
2015-Mar-20 07:33N 37°28' E 025°20'0 0.0
2015-Mar-20 06:33N 37°28' E 025°20'0 0.0
2015-Mar-20 05:33N 37°28' E 025°20'0 0.0
2015-Mar-20 04:33N 37°28' E 025°20'0 0.0
2015-Mar-20 03:33N 37°28' E 025°20'0 0.0
2015-Mar-20 02:33N 37°28' E 025°20'0 0.0
2015-Mar-20 01:32N 37°28' E 025°20'0 0.0
2015-Mar-20 00:33N 37°28' E 025°20'0 0.0
2015-Mar-19 23:33N 37°28' E 025°20'0 0.0
2015-Mar-19 22:33N 37°28' E 025°20'0 0.0
2015-Mar-19 21:33N 37°28' E 025°20'0 0.0
2015-Mar-19 20:34N 37°28' E 025°20'0 0.0
2015-Mar-19 19:34N 37°28' E 025°20'0 0.0
2015-Mar-19 18:33N 37°28' E 025°20'0 0.0
2015-Mar-19 17:33N 37°28' E 025°20'0 0.0
2015-Mar-19 16:34N 37°28' E 025°20'0 0.0
2015-Mar-19 15:33N 37°28' E 025°20'0 0.0
2015-Mar-19 14:33N 37°28' E 025°20'0 0.0
2015-Mar-19 13:33N 37°28' E 025°20'0 0.0
2015-Mar-19 12:33N 37°28' E 025°20'0 0.0
2015-Mar-19 11:33N 37°28' E 025°20'0 0.0
2015-Mar-19 10:33N 37°28' E 025°20'0 0.0
2015-Mar-19 09:33N 37°28' E 025°20'0 0.0
2015-Mar-19 08:33N 37°28' E 025°20'0 0.0
2015-Mar-19 07:33N 37°28' E 025°20'0 0.0
2015-Mar-19 06:33N 37°28' E 025°20'0 0.0
2015-Mar-19 05:33N 37°28' E 025°20'0 0.0
2015-Mar-19 04:33N 37°28' E 025°20'0 0.0
2015-Mar-19 03:33N 37°28' E 025°20'0 0.0
2015-Mar-19 02:34N 37°28' E 025°20'0 0.0
2015-Mar-19 01:33N 37°28' E 025°20'0 0.0
2015-Mar-19 00:33N 37°28' E 025°20'0 0.0
2015-Mar-18 23:33N 37°28' E 025°20'0 0.0
2015-Mar-18 22:33N 37°28' E 025°20'0 0.0
2015-Mar-18 21:33N 37°28' E 025°20'0 0.0
2015-Mar-18 20:33N 37°28' E 025°20'0 0.0
2015-Mar-18 19:33N 37°28' E 025°20'0 0.0
2015-Mar-18 18:33N 37°28' E 025°20'0 0.0
2015-Mar-18 17:33N 37°28' E 025°20'0 0.0
2015-Mar-18 16:33N 37°28' E 025°20'0 0.0
2015-Mar-18 15:33N 37°28' E 025°20'0 0.0
2015-Mar-18 14:34N 37°28' E 025°20'0 0.0
2015-Mar-18 13:33N 37°28' E 025°20'0 0.0
2015-Mar-18 12:33N 37°28' E 025°20'0 0.0
2015-Mar-18 11:33N 37°28' E 025°20'  
Track history (hours):
 
Tides and Currents Weather Stations Pressure Air Temp Water Temp Dewpoint Dewpoint Depression Visibility Wind Speed Wind Dir Waves Ship Positions

Armadores I

Last reported at 2015-Mar-28 10:33 UTC. Time now 2015-Mar-28 11:08 UTC.
Position N 37°28' E 025°20'.

Length 32 m; draft 5.3 m.

Type: Tug. MMSI: 240694000.

Date/timePositionNaut miles runAvg speedWind from/ knotsBaromVisibWave heightAir tempDewpointWater temp
2015-Mar-28 10:33N 37°28' E 025°20'0 0.0
2015-Mar-28 09:33N 37°28' E 025°20'0 0.0
2015-Mar-28 08:33N 37°28' E 025°20'0 0.0
2015-Mar-28 07:33N 37°28' E 025°20'0 0.0
2015-Mar-28 06:33N 37°28' E 025°20'0 0.0
2015-Mar-28 05:33N 37°28' E 025°20'0 0.0
2015-Mar-28 04:33N 37°28' E 025°20'7 7.1
2015-Mar-28 03:33N 37°27' E 025°11'8 8.0
2015-Mar-28 02:33N 37°20' E 025°16'9 9.1
2015-Mar-28 01:33N 37°16' E 025°27'11 9.4
2015-Mar-28 00:26N 37°12' E 025°39'44 8.9
2015-Mar-27 19:30N 36°40' E 026°17'9 0.4
2015-Mar-26 19:33N 36°33' E 026°12'8 8.1
2015-Mar-26 18:31N 36°28' E 026°20'10 8.8
2015-Mar-26 17:24N 36°24' E 026°31'58 4.1
2015-Mar-26 03:22N 37°10' E 025°48'1310.0
2015-Mar-26 02:04N 37°15' E 025°33'5 9.7
2015-Mar-26 01:33N 37°17' E 025°27'10 9.9
2015-Mar-26 00:33N 37°20' E 025°15'7 6.9
2015-Mar-25 23:33N 37°27' E 025°13'6 5.5
2015-Mar-25 22:33N 37°28' E 025°20'0 0.0
2015-Mar-25 21:33N 37°28' E 025°20'0 0.0
2015-Mar-25 20:33N 37°28' E 025°20'0 0.0
2015-Mar-25 19:33N 37°28' E 025°20'0 0.0
2015-Mar-25 18:33N 37°28' E 025°20'0 0.0
2015-Mar-25 17:33N 37°28' E 025°20'0 0.0
2015-Mar-25 16:33N 37°28' E 025°20'0 0.0
2015-Mar-25 15:33N 37°28' E 025°20'0 0.0
2015-Mar-25 14:33N 37°28' E 025°20'0 0.0
2015-Mar-25 13:33N 37°28' E 025°20'0 0.0
2015-Mar-25 12:33N 37°28' E 025°20'0 0.0
2015-Mar-25 11:33N 37°28' E 025°20'0 0.0
2015-Mar-25 10:33N 37°28' E 025°20'0 0.0
2015-Mar-25 09:33N 37°28' E 025°20'0 0.0
2015-Mar-25 08:33N 37°28' E 025°20'0 0.0
2015-Mar-25 07:33N 37°28' E 025°20'0 0.0
2015-Mar-25 06:33N 37°28' E 025°20'0 0.0
2015-Mar-25 05:33N 37°28' E 025°20'0 0.0
2015-Mar-25 04:33N 37°28' E 025°20'0 0.0
2015-Mar-25 03:33N 37°28' E 025°20'0 0.0
2015-Mar-25 02:33N 37°28' E 025°20'0 0.0
2015-Mar-25 01:33N 37°28' E 025°20'0 0.0
2015-Mar-25 00:33N 37°28' E 025°20'0 0.0
2015-Mar-24 23:33N 37°28' E 025°20'0 0.0
2015-Mar-24 22:33N 37°28' E 025°20'0 0.0
2015-Mar-24 21:33N 37°28' E 025°20'0 0.0
2015-Mar-24 20:33N 37°28' E 025°20'0 0.0
2015-Mar-24 19:33N 37°28' E 025°20'0 0.0
2015-Mar-24 18:33N 37°28' E 025°20'0 0.0
2015-Mar-24 17:33N 37°28' E 025°20'0 0.0
2015-Mar-24 16:34N 37°28' E 025°20'0 0.0
2015-Mar-24 15:33N 37°28' E 025°20'0 0.0
2015-Mar-24 14:33N 37°28' E 025°20'0 0.0
2015-Mar-24 13:34N 37°28' E 025°20'0 0.0
2015-Mar-24 12:33N 37°28' E 025°20'0 0.0
2015-Mar-24 11:33N 37°28' E 025°20'0 0.0
2015-Mar-24 10:34N 37°28' E 025°20'0 0.0
2015-Mar-24 09:34N 37°28' E 025°20'0 0.0
2015-Mar-24 08:33N 37°28' E 025°20'0 0.0
2015-Mar-24 07:33N 37°28' E 025°20'0 0.0
2015-Mar-24 06:33N 37°28' E 025°20'0 0.0
2015-Mar-24 05:33N 37°28' E 025°20'0 0.0
2015-Mar-24 04:33N 37°28' E 025°20'0 0.0
2015-Mar-24 03:33N 37°28' E 025°20'0 0.0
2015-Mar-24 02:33N 37°28' E 025°20'0 0.0
2015-Mar-24 01:33N 37°28' E 025°20'0 0.0
2015-Mar-24 00:33N 37°28' E 025°20'0 0.0
2015-Mar-23 23:33N 37°28' E 025°20'0 0.0
2015-Mar-23 22:33N 37°28' E 025°20'0 0.0
2015-Mar-23 21:33N 37°28' E 025°20'0 0.0
2015-Mar-23 20:26N 37°28' E 025°20'0 0.0
2015-Mar-23 19:33N 37°28' E 025°20'0 0.0
2015-Mar-23 18:33N 37°28' E 025°20'0 0.0
2015-Mar-23 17:33N 37°28' E 025°20'0 0.0
2015-Mar-23 16:33N 37°28' E 025°20'0 0.0
2015-Mar-23 15:33N 37°28' E 025°20'0 0.0
2015-Mar-23 14:32N 37°28' E 025°20'0 0.0
2015-Mar-23 13:33N 37°28' E 025°20'0 0.0
2015-Mar-23 12:33N 37°28' E 025°20'0 0.0
2015-Mar-23 11:34N 37°28' E 025°20'0 0.0
2015-Mar-23 10:33N 37°28' E 025°20'0 0.0
2015-Mar-23 09:33N 37°28' E 025°20'0 0.0
2015-Mar-23 08:33N 37°28' E 025°20'0 0.0
2015-Mar-23 07:33N 37°28' E 025°20'0 0.0
2015-Mar-23 06:33N 37°28' E 025°20'0 0.0
2015-Mar-23 05:33N 37°28' E 025°20'0 0.0
2015-Mar-23 04:33N 37°28' E 025°20'0 0.0
2015-Mar-23 03:33N 37°28' E 025°20'0 0.0
2015-Mar-23 02:33N 37°28' E 025°20'0 0.0
2015-Mar-23 01:33N 37°28' E 025°20'0 0.0
2015-Mar-23 00:33N 37°28' E 025°20'0 0.0
2015-Mar-22 23:33N 37°28' E 025°20'0 0.0
2015-Mar-22 22:29N 37°28' E 025°20'0 0.0
2015-Mar-22 21:32N 37°28' E 025°20'0 0.0
2015-Mar-22 20:33N 37°28' E 025°20'0 0.0
2015-Mar-22 19:33N 37°28' E 025°20'0 0.0
2015-Mar-22 18:33N 37°28' E 025°20'0 0.0
2015-Mar-22 17:33N 37°28' E 025°20'0 0.0
2015-Mar-22 16:33N 37°28' E 025°20'0 0.0
2015-Mar-22 15:33N 37°28' E 025°20'0 0.0
2015-Mar-22 14:33N 37°28' E 025°20'0 0.0
2015-Mar-22 13:33N 37°28' E 025°20'0 0.0
2015-Mar-22 12:33N 37°28' E 025°20'0 0.0
2015-Mar-22 11:33N 37°28' E 025°20'0 0.0
2015-Mar-22 10:33N 37°28' E 025°20'0 0.0
2015-Mar-22 09:33N 37°28' E 025°20'0 0.0
2015-Mar-22 08:33N 37°28' E 025°20'0 0.0
2015-Mar-22 07:33N 37°28' E 025°20'0 0.0
2015-Mar-22 06:33N 37°28' E 025°20'0 0.0
2015-Mar-22 05:33N 37°28' E 025°20'0 0.0
2015-Mar-22 04:33N 37°28' E 025°20'0 0.0
2015-Mar-22 03:33N 37°28' E 025°20'0 0.0
2015-Mar-22 02:33N 37°28' E 025°20'0 0.0
2015-Mar-22 01:33N 37°28' E 025°20'0 0.0
2015-Mar-22 00:33N 37°28' E 025°20'0 0.0
2015-Mar-21 23:33N 37°28' E 025°20'0 0.0
2015-Mar-21 22:33N 37°28' E 025°20'0 0.0
2015-Mar-21 21:33N 37°28' E 025°20'0 0.0
2015-Mar-21 20:33N 37°28' E 025°20'0 0.0
2015-Mar-21 19:33N 37°28' E 025°20'0 0.0
2015-Mar-21 18:34N 37°28' E 025°20'0 0.0
2015-Mar-21 17:33N 37°28' E 025°20'0 0.0
2015-Mar-21 16:33N 37°28' E 025°20'0 0.0
2015-Mar-21 15:33N 37°28' E 025°20'0 0.0
2015-Mar-21 14:33N 37°28' E 025°20'0 0.0
2015-Mar-21 13:33N 37°28' E 025°20'0 0.0
2015-Mar-21 12:33N 37°28' E 025°20'0 0.0
2015-Mar-21 11:34N 37°28' E 025°20'0 0.0
2015-Mar-21 10:34N 37°28' E 025°20'0 0.0
2015-Mar-21 09:33N 37°28' E 025°20'0 0.0
2015-Mar-21 08:33N 37°28' E 025°20'0 0.0
2015-Mar-21 07:33N 37°28' E 025°20'0 0.0
2015-Mar-21 06:33N 37°28' E 025°20'0 0.0
2015-Mar-21 05:33N 37°28' E 025°20'0 0.0
2015-Mar-21 04:33N 37°28' E 025°20'0 0.0
2015-Mar-21 03:33N 37°28' E 025°20'0 0.0
2015-Mar-21 02:33N 37°28' E 025°20'0 0.0
2015-Mar-21 01:33N 37°28' E 025°20'0 0.0
2015-Mar-21 00:33N 37°28' E 025°20'0 0.0
2015-Mar-20 23:33N 37°28' E 025°20'0 0.0
2015-Mar-20 22:33N 37°28' E 025°20'0 0.0
2015-Mar-20 21:33N 37°28' E 025°20'0 0.0
2015-Mar-20 20:33N 37°28' E 025°20'0 0.0
2015-Mar-20 19:33N 37°28' E 025°20'0 0.0
2015-Mar-20 18:33N 37°28' E 025°20'0 0.0
2015-Mar-20 17:33N 37°28' E 025°20'0 0.0
2015-Mar-20 16:34N 37°28' E 025°20'0 0.2
2015-Mar-20 15:33N 37°28' E 025°19'0 0.2
2015-Mar-20 14:33N 37°28' E 025°20'0 0.0
2015-Mar-20 13:33N 37°28' E 025°20'0 0.1
2015-Mar-20 12:33N 37°28' E 025°20'0 0.1
2015-Mar-20 11:33N 37°28' E 025°20'0 0.0
2015-Mar-20 10:33N 37°28' E 025°20'0 0.0
2015-Mar-20 09:33N 37°28' E 025°20'0 0.0
2015-Mar-20 08:33N 37°28' E 025°20'0 0.0
2015-Mar-20 07:33N 37°28' E 025°20'0 0.0
2015-Mar-20 06:33N 37°28' E 025°20'0 0.0
2015-Mar-20 05:33N 37°28' E 025°20'0 0.0
2015-Mar-20 04:33N 37°28' E 025°20'0 0.0
2015-Mar-20 03:33N 37°28' E 025°20'0 0.0
2015-Mar-20 02:33N 37°28' E 025°20'0 0.0
2015-Mar-20 01:32N 37°28' E 025°20'0 0.0
2015-Mar-20 00:33N 37°28' E 025°20'0 0.0
2015-Mar-19 23:33N 37°28' E 025°20'0 0.0
2015-Mar-19 22:33N 37°28' E 025°20'0 0.0
2015-Mar-19 21:33N 37°28' E 025°20'0 0.0
2015-Mar-19 20:34N 37°28' E 025°20'0 0.0
2015-Mar-19 19:34N 37°28' E 025°20'0 0.0
2015-Mar-19 18:33N 37°28' E 025°20'0 0.0
2015-Mar-19 17:33N 37°28' E 025°20'0 0.0
2015-Mar-19 16:34N 37°28' E 025°20'0 0.0
2015-Mar-19 15:33N 37°28' E 025°20'0 0.0
2015-Mar-19 14:33N 37°28' E 025°20'0 0.0
2015-Mar-19 13:33N 37°28' E 025°20'0 0.0
2015-Mar-19 12:33N 37°28' E 025°20'0 0.0
2015-Mar-19 11:33N 37°28' E 025°20'0 0.0
2015-Mar-19 10:33N 37°28' E 025°20'0 0.0
2015-Mar-19 09:33N 37°28' E 025°20'0 0.0
2015-Mar-19 08:33N 37°28' E 025°20'0 0.0
2015-Mar-19 07:33N 37°28' E 025°20'0 0.0
2015-Mar-19 06:33N 37°28' E 025°20'0 0.0
2015-Mar-19 05:33N 37°28' E 025°20'0 0.0
2015-Mar-19 04:33N 37°28' E 025°20'0 0.0
2015-Mar-19 03:33N 37°28' E 025°20'0 0.0
2015-Mar-19 02:34N 37°28' E 025°20'0 0.0
2015-Mar-19 01:33N 37°28' E 025°20'0 0.0
2015-Mar-19 00:33N 37°28' E 025°20'0 0.0
2015-Mar-18 23:33N 37°28' E 025°20'0 0.0
2015-Mar-18 22:33N 37°28' E 025°20'0 0.0
2015-Mar-18 21:33N 37°28' E 025°20'0 0.0
2015-Mar-18 20:33N 37°28' E 025°20'0 0.0
2015-Mar-18 19:33N 37°28' E 025°20'0 0.0
2015-Mar-18 18:33N 37°28' E 025°20'0 0.0
2015-Mar-18 17:33N 37°28' E 025°20'0 0.0
2015-Mar-18 16:33N 37°28' E 025°20'0 0.0
2015-Mar-18 15:33N 37°28' E 025°20'0 0.0
2015-Mar-18 14:34N 37°28' E 025°20'0 0.0
2015-Mar-18 13:33N 37°28' E 025°20'0 0.0
2015-Mar-18 12:33N 37°28' E 025°20'0 0.0
2015-Mar-18 11:33N 37°28' E 025°20'  

Dump ship's entire track history